createdAt,value
2024-02-13T00:01:15.067Z,56.69
2024-02-13T00:03:43.119Z,56.56
2024-02-13T00:06:11.232Z,56.74
2024-02-13T00:08:45.107Z,57.01
2024-02-13T00:11:15.093Z,56.74
2024-02-13T00:13:44.373Z,56.98
2024-02-13T00:16:12.295Z,56.84
2024-02-13T00:18:40.561Z,56.75
2024-02-13T00:21:09.044Z,56.72
2024-02-13T00:23:37.555Z,57.04
2024-02-13T00:26:08.533Z,57.01
2024-02-13T00:28:36.463Z,56.84
2024-02-13T00:31:05.931Z,57.84
2024-02-13T00:33:34.485Z,57.58
2024-02-13T00:36:02.705Z,57.12
2024-02-13T00:38:31.269Z,57.39
2024-02-13T00:40:59.118Z,57.05
2024-02-13T00:43:29.814Z,57.08
2024-02-13T00:45:58.361Z,56.55
2024-02-13T00:48:27.939Z,56.79
2024-02-13T00:50:56.382Z,56.59
2024-02-13T00:53:24.346Z,56.60
2024-02-13T00:55:52.689Z,56.50
2024-02-13T00:58:20.526Z,57.06
2024-02-13T01:00:50.278Z,57.53
2024-02-13T01:03:18.255Z,57.40
2024-02-13T01:05:46.145Z,57.15
2024-02-13T01:08:14.131Z,57.06
2024-02-13T01:10:41.996Z,56.90
2024-02-13T01:13:09.970Z,56.96
2024-02-13T01:15:37.983Z,56.91
2024-02-13T01:18:07.901Z,56.84
2024-02-13T01:20:36.031Z,56.67
2024-02-13T01:23:04.024Z,56.65
2024-02-13T01:25:32.782Z,56.78
2024-02-13T01:28:00.939Z,56.61
2024-02-13T01:30:28.762Z,56.95
2024-02-13T01:32:56.684Z,56.93
2024-02-13T01:35:26.483Z,56.67
2024-02-13T01:37:54.368Z,56.65
2024-02-13T01:40:22.990Z,56.91
2024-02-13T01:42:50.839Z,56.59
2024-02-13T01:45:18.789Z,56.57
2024-02-13T01:47:46.846Z,56.66
2024-02-13T01:50:19.140Z,56.78
2024-02-13T01:52:48.488Z,56.77
2024-02-13T01:55:17.527Z,56.55
2024-02-13T01:57:45.514Z,56.81
2024-02-13T02:00:14.829Z,56.72
2024-02-13T02:02:43.752Z,56.91
2024-02-13T02:05:12.681Z,56.98
2024-02-13T02:07:42.253Z,56.94
2024-02-13T02:10:11.827Z,57.07
2024-02-13T02:12:40.850Z,57.09
2024-02-13T02:15:10.771Z,57.06
2024-02-13T02:17:38.671Z,57.24
2024-02-13T02:20:08.402Z,57.34
2024-02-13T02:22:36.279Z,57.64
2024-02-13T02:25:09.422Z,57.39
2024-02-13T02:27:37.517Z,57.02
2024-02-13T02:30:07.930Z,57.34
2024-02-13T02:32:35.886Z,57.15
2024-02-13T02:35:03.802Z,57.21
2024-02-13T02:37:33.044Z,57.11
2024-02-13T02:40:00.910Z,57.10
2024-02-13T02:42:30.113Z,57.21
2024-02-13T02:44:58.013Z,57.32
2024-02-13T02:47:25.972Z,57.28
2024-02-13T02:49:53.817Z,57.26
2024-02-13T02:52:21.661Z,57.19
2024-02-13T02:54:49.483Z,57.24
2024-02-13T02:57:17.615Z,57.19
2024-02-13T02:59:47.278Z,57.71
2024-02-13T03:02:15.992Z,57.61
2024-02-13T03:04:43.962Z,57.48
2024-02-13T03:07:11.823Z,57.50
2024-02-13T03:09:39.641Z,56.96
2024-02-13T03:12:08.352Z,57.34
2024-02-13T03:14:36.264Z,56.98
2024-02-13T03:17:07.819Z,57.16
2024-02-13T03:19:35.744Z,58.12
2024-02-13T03:22:03.677Z,57.89
2024-02-13T03:24:31.561Z,58.26
2024-02-13T03:26:59.442Z,58.28
2024-02-13T03:29:28.223Z,57.89
2024-02-13T03:31:56.589Z,57.92
2024-02-13T03:34:26.161Z,58.14
2024-02-13T03:36:54.073Z,58.02
2024-02-13T03:39:22.047Z,58.21
2024-02-13T03:41:49.898Z,58.29
2024-02-13T03:44:17.817Z,58.19
2024-02-13T03:46:45.695Z,58.31
2024-02-13T03:49:13.610Z,58.04
2024-02-13T03:51:42.840Z,58.43
2024-02-13T03:54:10.945Z,58.29
2024-02-13T03:56:39.379Z,58.51
2024-02-13T03:59:11.445Z,58.90
2024-02-13T04:01:40.606Z,59.65
2024-02-13T04:04:09.472Z,59.88
2024-02-13T04:06:37.596Z,59.93
2024-02-13T04:09:08.331Z,59.37
2024-02-13T04:11:36.839Z,58.97
2024-02-13T04:14:04.885Z,58.99
2024-02-13T04:16:32.742Z,59.22
2024-02-13T04:19:00.990Z,58.78
2024-02-13T04:21:28.866Z,58.91
2024-02-13T04:23:56.735Z,58.71
2024-02-13T04:26:36.068Z,58.79
2024-02-13T04:29:05.307Z,58.45
2024-02-13T04:31:33.188Z,58.08
2024-02-13T04:34:01.500Z,58.14
2024-02-13T04:36:29.473Z,58.11
2024-02-13T04:38:57.303Z,58.00
2024-02-13T04:41:26.938Z,57.97
2024-02-13T04:43:55.743Z,57.98
2024-02-13T04:46:26.591Z,57.93
2024-02-13T04:48:55.197Z,57.93
2024-02-13T04:51:25.035Z,58.00
2024-02-13T04:53:53.364Z,57.72
2024-02-13T04:56:21.418Z,57.93
2024-02-13T04:58:56.631Z,57.72
2024-02-13T05:01:24.567Z,57.99
2024-02-13T05:04:06.303Z,57.97
2024-02-13T05:06:51.575Z,57.71
2024-02-13T05:09:19.499Z,57.85
2024-02-13T05:11:47.412Z,57.80
2024-02-13T05:14:17.089Z,57.99
2024-02-13T05:16:44.967Z,57.88
2024-02-13T05:19:13.642Z,57.96
2024-02-13T05:21:42.659Z,57.55
2024-02-13T05:24:10.762Z,57.39
2024-02-13T05:26:38.986Z,57.47
2024-02-13T05:29:06.925Z,57.51
2024-02-13T05:31:37.005Z,57.93
2024-02-13T05:34:05.602Z,58.13
2024-02-13T05:36:34.321Z,58.01
2024-02-13T05:39:03.553Z,58.07
2024-02-13T05:41:31.491Z,57.94
2024-02-13T05:44:03.764Z,58.09
2024-02-13T05:46:31.939Z,58.17
2024-02-13T05:49:01.882Z,58.23
2024-02-13T05:51:29.802Z,58.60
2024-02-13T05:53:59.097Z,58.48
2024-02-13T05:56:28.392Z,58.17
2024-02-13T05:58:59.181Z,57.99
2024-02-13T06:01:27.436Z,57.93
2024-02-13T06:03:58.210Z,58.15
2024-02-13T06:06:28.057Z,58.46
2024-02-13T06:08:56.112Z,58.43
2024-02-13T06:11:24.802Z,58.87
2024-02-13T06:13:52.868Z,58.46
2024-02-13T06:16:20.711Z,58.37
2024-02-13T06:18:48.786Z,58.55
2024-02-13T06:21:21.614Z,58.26
2024-02-13T06:23:52.843Z,58.13
2024-02-13T06:26:20.899Z,57.92
2024-02-13T06:28:50.233Z,57.83
2024-02-13T06:31:18.098Z,57.66
2024-02-13T06:33:46.027Z,57.77
2024-02-13T06:36:14.011Z,57.46
2024-02-13T06:38:41.854Z,58.64
2024-02-13T06:41:12.071Z,58.96
2024-02-13T06:43:40.094Z,59.21
2024-02-13T06:46:07.915Z,59.47
2024-02-13T06:48:36.382Z,59.39
2024-02-13T06:51:04.750Z,59.76
2024-02-13T06:53:33.529Z,58.98
2024-02-13T06:56:01.401Z,58.84
2024-02-13T06:58:30.647Z,58.97
2024-02-13T07:00:58.498Z,58.50
2024-02-13T07:03:26.360Z,58.46
2024-02-13T07:05:57.173Z,58.41
2024-02-13T07:08:25.715Z,58.56
2024-02-13T07:10:55.123Z,58.22
2024-02-13T07:13:23.312Z,58.43
2024-02-13T07:15:53.214Z,58.37
2024-02-13T07:18:21.163Z,57.89
2024-02-13T07:20:49.135Z,58.40
2024-02-13T07:23:17.007Z,58.16
2024-02-13T07:25:44.906Z,58.66
2024-02-13T07:28:12.738Z,58.95
2024-02-13T07:30:40.551Z,58.51
2024-02-13T07:33:10.094Z,58.61
2024-02-13T07:35:38.207Z,58.44
2024-02-13T07:38:06.386Z,57.88
2024-02-13T07:40:34.217Z,58.02
2024-02-13T07:43:02.045Z,57.69
2024-02-13T07:45:30.080Z,57.66
2024-02-13T07:47:58.508Z,57.72
2024-02-13T07:50:28.299Z,57.50
2024-02-13T07:52:56.315Z,57.01
2024-02-13T07:55:24.196Z,57.10
2024-02-13T07:57:53.513Z,57.09
2024-02-13T08:00:22.297Z,56.84
2024-02-13T08:02:50.554Z,56.50
2024-02-13T08:05:19.265Z,56.66
2024-02-13T08:07:48.545Z,56.70
2024-02-13T08:10:16.390Z,56.76
2024-02-13T08:12:44.243Z,56.27
2024-02-13T08:15:12.569Z,56.22
2024-02-13T08:17:40.518Z,56.50
2024-02-13T08:20:10.155Z,56.50
2024-02-13T08:22:39.115Z,55.96
2024-02-13T08:25:09.550Z,56.16
2024-02-13T08:27:38.457Z,56.63
2024-02-13T08:30:11.395Z,56.33
2024-02-13T08:32:42.525Z,56.41
2024-02-13T08:35:11.619Z,56.21
2024-02-13T08:37:40.053Z,55.81
2024-02-13T08:40:10.456Z,55.95
2024-02-13T08:42:38.690Z,56.08
2024-02-13T08:45:07.978Z,56.07
2024-02-13T08:47:35.956Z,55.85
2024-02-13T08:50:04.193Z,55.92
2024-02-13T08:52:32.225Z,56.00
2024-02-13T08:55:00.037Z,55.87
2024-02-13T08:57:29.218Z,55.57
2024-02-13T08:59:57.419Z,55.56
2024-02-13T09:02:25.488Z,55.87
2024-02-13T09:04:53.524Z,55.62
2024-02-13T09:07:21.375Z,55.84
2024-02-13T09:09:49.236Z,55.73
2024-02-13T09:12:17.122Z,55.75
2024-02-13T09:14:46.395Z,55.31
2024-02-13T09:17:15.032Z,55.62
2024-02-13T09:19:44.615Z,55.57
2024-02-13T09:22:15.161Z,55.22
2024-02-13T09:24:45.330Z,55.18
2024-02-13T09:27:13.542Z,55.09
2024-02-13T09:29:41.583Z,55.31
2024-02-13T09:32:11.551Z,55.00
2024-02-13T09:34:39.573Z,54.93
2024-02-13T09:37:08.108Z,54.82
2024-02-13T09:39:35.968Z,55.03
2024-02-13T09:42:04.534Z,54.60
2024-02-13T09:44:33.963Z,54.94
2024-02-13T09:47:02.900Z,54.85
2024-02-13T09:49:32.387Z,54.23
2024-02-13T09:52:00.374Z,54.75
2024-02-13T09:54:28.322Z,54.30
2024-02-13T09:56:56.321Z,54.22
2024-02-13T09:59:25.182Z,54.42
2024-02-13T10:01:53.697Z,54.79
2024-02-13T10:04:21.659Z,54.61
2024-02-13T10:06:52.390Z,54.24
2024-02-13T10:09:20.687Z,54.27
2024-02-13T10:11:50.017Z,54.18
2024-02-13T10:14:20.524Z,54.47
2024-02-13T10:16:51.100Z,53.85
2024-02-13T10:19:19.659Z,53.76
2024-02-13T10:21:50.670Z,54.17
2024-02-13T10:24:20.095Z,53.77
2024-02-13T10:26:48.186Z,53.70
2024-02-13T10:29:16.086Z,54.14
2024-02-13T10:31:46.351Z,53.90
2024-02-13T10:34:14.700Z,53.60
2024-02-13T10:36:45.532Z,53.82
2024-02-13T10:39:14.201Z,53.68
2024-02-13T10:41:45.762Z,53.75
2024-02-13T10:44:15.218Z,53.75
2024-02-13T10:46:44.877Z,53.33
2024-02-13T10:49:18.797Z,53.92
2024-02-13T10:51:46.640Z,54.15
2024-02-13T10:54:16.745Z,54.14
2024-02-13T10:56:46.814Z,54.35
2024-02-13T10:59:14.850Z,53.96
2024-02-13T11:01:43.530Z,53.90
2024-02-13T11:04:11.667Z,53.96
2024-02-13T11:06:39.579Z,54.23
2024-02-13T11:09:13.380Z,54.35
2024-02-13T11:11:46.081Z,54.49
2024-02-13T11:14:18.489Z,54.87
2024-02-13T11:16:53.602Z,55.13
2024-02-13T11:19:22.222Z,55.36
2024-02-13T11:21:52.456Z,55.37
2024-02-13T11:24:23.415Z,55.31
2024-02-13T11:26:52.677Z,54.64
2024-02-13T11:29:23.375Z,54.43
2024-02-13T11:31:59.159Z,54.52
2024-02-13T11:34:43.189Z,54.52
2024-02-13T11:37:21.973Z,54.03
2024-02-13T11:39:50.196Z,54.28
2024-02-13T11:42:20.737Z,53.80
2024-02-13T11:44:50.549Z,53.81
2024-02-13T11:47:21.358Z,53.85
2024-02-13T11:49:50.994Z,53.81
2024-02-13T11:52:19.270Z,53.93
2024-02-13T11:54:47.543Z,54.10
2024-02-13T11:57:16.021Z,53.90
2024-02-13T11:59:45.391Z,53.54
2024-02-13T12:02:15.292Z,53.67
2024-02-13T12:04:44.382Z,53.90
2024-02-13T12:07:12.666Z,53.62
2024-02-13T12:09:41.951Z,53.59
2024-02-13T12:12:10.516Z,53.70
2024-02-13T12:14:40.040Z,53.57
2024-02-13T12:17:09.285Z,54.52
2024-02-13T12:19:38.984Z,53.98
2024-02-13T12:22:10.782Z,53.77
2024-02-13T12:24:40.762Z,53.76
2024-02-13T12:27:11.217Z,53.54
2024-02-13T12:29:40.648Z,53.76
2024-02-13T12:32:11.770Z,53.80
2024-02-13T12:34:40.162Z,53.27
2024-02-13T12:37:09.631Z,53.42
2024-02-13T12:39:38.314Z,53.63
2024-02-13T12:42:12.185Z,53.63
2024-02-13T12:44:40.503Z,53.14
2024-02-13T12:47:09.143Z,53.13
2024-02-13T12:49:40.018Z,53.38
2024-02-13T12:52:08.673Z,53.62
2024-02-13T12:54:36.669Z,53.62
2024-02-13T12:57:04.838Z,53.40
2024-02-13T12:59:39.252Z,53.47
2024-02-13T13:02:09.911Z,53.33
2024-02-13T13:04:39.193Z,53.65
2024-02-13T13:07:07.653Z,53.10
2024-02-13T13:09:37.421Z,53.40
2024-02-13T13:12:09.025Z,53.26
2024-02-13T13:14:39.297Z,52.90
2024-02-13T13:17:08.659Z,52.96
2024-02-13T13:19:36.611Z,53.15
2024-02-13T13:22:06.686Z,52.98
2024-02-13T13:24:34.558Z,53.10
2024-02-13T13:27:02.918Z,53.04
2024-02-13T13:29:31.451Z,52.60
2024-02-13T13:31:59.405Z,52.60
2024-02-13T13:34:29.352Z,52.53
2024-02-13T13:36:58.944Z,52.39
2024-02-13T13:39:31.167Z,52.87
2024-02-13T13:42:09.673Z,52.38
2024-02-13T13:44:38.507Z,52.36
2024-02-13T13:47:06.670Z,52.64
2024-02-13T13:49:36.297Z,53.32
2024-02-13T13:52:07.132Z,53.02
2024-02-13T13:54:36.501Z,53.20
2024-02-13T13:57:04.380Z,53.11
2024-02-13T13:59:32.984Z,52.94
2024-02-13T14:02:01.779Z,53.54
2024-02-13T14:04:30.223Z,53.10
2024-02-13T14:06:58.156Z,52.95
2024-02-13T14:09:26.013Z,52.93
2024-02-13T14:11:55.304Z,52.82
2024-02-13T14:14:23.305Z,52.79
2024-02-13T14:16:52.451Z,52.66
2024-02-13T14:19:20.738Z,52.35
2024-02-13T14:21:49.614Z,52.61
2024-02-13T14:24:17.472Z,53.02
2024-02-13T14:26:45.412Z,53.00
2024-02-13T14:29:14.639Z,52.76
2024-02-13T14:31:43.372Z,52.93
2024-02-13T14:34:11.762Z,52.59
2024-02-13T14:36:42.657Z,52.92
2024-02-13T14:39:18.334Z,52.76
2024-02-13T14:41:50.589Z,52.79
2024-02-13T14:44:19.868Z,53.09
2024-02-13T14:46:47.720Z,52.99
2024-02-13T14:49:15.683Z,53.24
2024-02-13T14:51:43.988Z,52.82
2024-02-13T14:54:13.581Z,52.87
2024-02-13T14:56:42.809Z,53.18
2024-02-13T14:59:11.970Z,53.12
2024-02-13T15:01:42.073Z,52.66
2024-02-13T15:04:09.987Z,53.09
2024-02-13T15:06:39.861Z,52.85
2024-02-13T15:09:11.416Z,52.94
2024-02-13T15:11:40.039Z,52.94
2024-02-13T15:14:09.306Z,52.97
2024-02-13T15:16:37.126Z,53.03
2024-02-13T15:19:07.641Z,52.92
2024-02-13T15:21:35.713Z,52.97
2024-02-13T15:24:05.052Z,52.58
2024-02-13T15:26:34.439Z,52.68
2024-02-13T15:29:02.404Z,52.61
2024-02-13T15:31:30.251Z,52.64
2024-02-13T15:33:58.263Z,52.69
2024-02-13T15:36:34.298Z,52.60
2024-02-13T15:39:33.952Z,52.63
2024-02-13T15:42:19.525Z,52.69
2024-02-13T15:45:04.848Z,52.96
2024-02-13T15:47:34.908Z,53.14
2024-02-13T15:50:06.515Z,52.98
2024-02-13T15:52:36.726Z,52.68
2024-02-13T15:55:04.639Z,53.01
2024-02-13T15:57:32.826Z,53.09
2024-02-13T16:00:00.771Z,52.71
2024-02-13T16:02:29.188Z,52.55
2024-02-13T16:04:56.998Z,52.71
2024-02-13T16:07:26.587Z,53.07
2024-02-13T16:09:55.902Z,53.00
2024-02-13T16:12:23.802Z,53.08
2024-02-13T16:14:52.178Z,53.07
2024-02-13T16:17:20.890Z,52.76
2024-02-13T16:19:48.907Z,52.97
2024-02-13T16:22:16.916Z,53.05
2024-02-13T16:24:44.754Z,52.83
2024-02-13T16:27:14.910Z,53.03
2024-02-13T16:29:42.819Z,52.74
2024-02-13T16:32:13.095Z,52.99
2024-02-13T16:34:42.919Z,53.17
2024-02-13T16:37:12.246Z,52.63
2024-02-13T16:39:40.131Z,52.51
2024-02-13T16:42:08.188Z,52.86
2024-02-13T16:44:37.483Z,52.62
2024-02-13T16:47:06.279Z,53.08
2024-02-13T16:49:35.190Z,52.84
2024-02-13T16:52:03.549Z,53.02
2024-02-13T16:54:31.543Z,52.44
2024-02-13T16:57:00.293Z,52.88
2024-02-13T16:59:28.409Z,52.71
2024-02-13T17:01:58.494Z,53.01
2024-02-13T17:04:27.757Z,52.95
2024-02-13T17:06:55.782Z,52.73
2024-02-13T17:09:23.720Z,52.91
2024-02-13T17:11:52.220Z,52.86
2024-02-13T17:14:20.543Z,52.94
2024-02-13T17:16:48.708Z,52.88
2024-02-13T17:19:18.091Z,52.51
2024-02-13T17:21:46.465Z,52.98
2024-02-13T17:24:14.391Z,52.98
2024-02-13T17:26:42.513Z,53.59
2024-02-13T17:29:11.204Z,53.75
2024-02-13T17:31:39.019Z,53.63
2024-02-13T17:34:07.095Z,53.65
2024-02-13T17:36:36.528Z,53.63
2024-02-13T17:39:06.437Z,53.95
2024-02-13T17:41:34.431Z,53.89
2024-02-13T17:44:02.348Z,53.53
2024-02-13T17:46:30.161Z,53.62
2024-02-13T17:48:58.162Z,53.72
2024-02-13T17:51:26.125Z,53.79
2024-02-13T17:53:56.305Z,53.69
2024-02-13T17:56:25.064Z,53.90
2024-02-13T17:58:52.917Z,53.87
2024-02-13T18:01:20.741Z,54.11
2024-02-13T18:03:48.679Z,54.39
2024-02-13T18:06:16.725Z,54.36
2024-02-13T18:08:45.353Z,53.71
2024-02-13T18:11:15.416Z,54.08
2024-02-13T18:13:43.214Z,53.54
2024-02-13T18:16:11.705Z,53.71
2024-02-13T18:18:39.693Z,53.51
2024-02-13T18:21:08.178Z,54.07
2024-02-13T18:23:36.165Z,53.69
2024-02-13T18:26:05.730Z,53.86
2024-02-13T18:28:34.941Z,54.25
2024-02-13T18:31:04.578Z,53.57
2024-02-13T18:33:32.601Z,53.54
2024-02-13T18:36:00.671Z,53.92
2024-02-13T18:38:28.575Z,53.38
2024-02-13T18:40:57.518Z,53.73
2024-02-13T18:43:27.088Z,53.44
2024-02-13T18:45:56.619Z,53.59
2024-02-13T18:48:25.092Z,53.70
2024-02-13T18:50:53.211Z,53.83
2024-02-13T18:53:23.826Z,53.38
2024-02-13T18:55:51.802Z,53.88
2024-02-13T18:58:19.656Z,53.64
2024-02-13T19:00:47.531Z,53.72
2024-02-13T19:03:18.380Z,53.35
2024-02-13T19:05:46.342Z,53.78
2024-02-13T19:08:15.022Z,53.86
2024-02-13T19:10:43.217Z,53.77
2024-02-13T19:13:11.095Z,53.68
2024-02-13T19:15:38.897Z,53.78
2024-02-13T19:18:11.244Z,53.47
2024-02-13T19:20:40.559Z,53.82
2024-02-13T19:23:08.709Z,53.56
2024-02-13T19:25:36.573Z,53.80
2024-02-13T19:28:05.027Z,53.57
2024-02-13T19:30:32.846Z,53.56
2024-02-13T19:33:00.719Z,53.52
2024-02-13T19:35:28.973Z,53.78
2024-02-13T19:37:58.435Z,53.37
2024-02-13T19:40:26.275Z,53.71
2024-02-13T19:42:54.205Z,53.75
2024-02-13T19:45:22.698Z,53.67
2024-02-13T19:47:50.682Z,53.59
2024-02-13T19:50:18.676Z,53.33
2024-02-13T19:52:46.561Z,53.22
2024-02-13T19:55:17.038Z,53.63
2024-02-13T19:57:44.869Z,53.61
2024-02-13T20:00:14.051Z,53.33
2024-02-13T20:02:43.416Z,53.55
2024-02-13T20:05:11.352Z,53.67
2024-02-13T20:07:39.678Z,53.51
2024-02-13T20:10:08.386Z,53.35
2024-02-13T20:12:37.563Z,53.23
2024-02-13T20:15:06.861Z,53.51
2024-02-13T20:17:34.923Z,53.87
2024-02-13T20:20:04.914Z,53.37
2024-02-13T20:22:32.759Z,53.81
2024-02-13T20:25:00.558Z,53.30
2024-02-13T20:27:28.391Z,53.53
2024-02-13T20:29:57.628Z,53.43
2024-02-13T20:32:25.678Z,53.44
2024-02-13T20:34:53.836Z,53.51
2024-02-13T20:37:21.977Z,53.45
2024-02-13T20:39:50.681Z,53.28
2024-02-13T20:42:21.147Z,53.21
2024-02-13T20:44:49.004Z,53.02
2024-02-13T20:47:18.201Z,53.18
2024-02-13T20:49:46.062Z,52.87
2024-02-13T20:52:15.335Z,52.98
2024-02-13T20:54:43.303Z,53.07
2024-02-13T20:57:11.158Z,53.35
2024-02-13T20:59:39.107Z,53.29
2024-02-13T21:02:07.379Z,53.19
2024-02-13T21:04:36.830Z,52.82
2024-02-13T21:07:06.117Z,53.29
2024-02-13T21:09:34.153Z,53.15
2024-02-13T21:12:02.080Z,53.32
2024-02-13T21:14:30.216Z,53.04
2024-02-13T21:16:58.828Z,53.07
2024-02-13T21:19:27.300Z,53.21
2024-02-13T21:22:14.275Z,53.00
2024-02-13T21:24:42.113Z,52.88
2024-02-13T21:27:09.975Z,53.23
2024-02-13T21:29:37.990Z,53.31
2024-02-13T21:32:06.257Z,53.03
2024-02-13T21:34:35.102Z,53.31
2024-02-13T21:37:04.408Z,53.11
2024-02-13T21:39:33.205Z,53.07
2024-02-13T21:42:01.160Z,53.04
2024-02-13T21:44:29.475Z,53.07
2024-02-13T21:46:57.307Z,53.01
2024-02-13T21:49:25.278Z,53.18
2024-02-13T21:51:53.931Z,53.17
2024-02-13T21:54:23.191Z,52.78
2024-02-13T21:56:51.603Z,52.91
2024-02-13T21:59:20.852Z,53.05
2024-02-13T22:01:48.810Z,53.10
2024-02-13T22:04:16.656Z,53.17
2024-02-13T22:06:44.575Z,53.20
2024-02-13T22:09:13.224Z,53.17
2024-02-13T22:11:42.798Z,53.03
2024-02-13T22:14:10.915Z,53.19
2024-02-13T22:16:38.809Z,52.70
2024-02-13T22:19:07.129Z,53.06
2024-02-13T22:21:35.171Z,52.95
2024-02-13T22:24:04.874Z,53.27
2024-02-13T22:26:38.107Z,53.50
2024-02-13T22:29:08.215Z,53.63
2024-02-13T22:31:36.150Z,53.79
2024-02-13T22:34:06.759Z,53.42
2024-02-13T22:36:34.878Z,53.56
2024-02-13T22:39:02.845Z,53.43
2024-02-13T22:41:31.078Z,53.58
2024-02-13T22:43:59.260Z,54.09
2024-02-13T22:46:28.459Z,54.04
2024-02-13T22:48:56.387Z,53.92
2024-02-13T22:51:24.270Z,54.21
2024-02-13T22:53:52.216Z,53.52
2024-02-13T22:56:20.438Z,53.92
2024-02-13T22:58:48.269Z,53.38
2024-02-13T23:01:16.293Z,53.95
2024-02-13T23:03:45.608Z,53.95
2024-02-13T23:06:13.562Z,53.57
2024-02-13T23:08:41.667Z,53.67
2024-02-13T23:11:11.113Z,53.73
2024-02-13T23:13:44.278Z,53.91
2024-02-13T23:16:15.718Z,54.03
2024-02-13T23:18:45.046Z,53.90
2024-02-13T23:21:13.053Z,53.90
2024-02-13T23:23:41.030Z,53.53
2024-02-13T23:26:09.054Z,54.00
2024-02-13T23:28:48.293Z,53.98
2024-02-13T23:31:23.737Z,53.58
2024-02-13T23:33:53.768Z,53.58
2024-02-13T23:36:21.887Z,53.77
2024-02-13T23:38:50.352Z,53.91
2024-02-13T23:41:18.226Z,53.90
2024-02-13T23:43:46.664Z,53.58
2024-02-13T23:46:14.544Z,53.83
2024-02-13T23:48:42.788Z,53.70
2024-02-13T23:51:13.080Z,53.54
2024-02-13T23:53:40.987Z,53.89
2024-02-13T23:56:09.126Z,53.61
2024-02-13T23:58:37.079Z,53.46
